sensor_id;sensor_type;location;lat;lon;timestamp;P1;durP1;ratioP1;P2;durP2;ratioP2
65545;SDS011;52177;55.968;37.498;2023-09-30T00:00:23;15.43;;;12.48;;
65545;SDS011;52177;55.968;37.498;2023-09-30T00:00:53;17.42;;;12.70;;
65545;SDS011;52177;55.968;37.498;2023-09-30T00:01:24;18.60;;;12.95;;
65545;SDS011;52177;55.968;37.498;2023-09-30T00:01:54;15.95;;;12.55;;
65545;SDS011;52177;55.968;37.498;2023-09-30T00:02:25;15.68;;;11.85;;
65545;SDS011;52177;55.968;37.498;2023-09-30T00:02:56;14.90;;;11.85;;
65545;SDS011;52177;55.968;37.498;2023-09-30T00:03:26;16.20;;;12.15;;
65545;SDS011;52177;55.968;37.498;2023-09-30T00:03:56;15.57;;;12.07;;
65545;SDS011;52177;55.968;37.498;2023-09-30T00:04:27;15.02;;;12.50;;
65545;SDS011;52177;55.968;37.498;2023-09-30T00:04:58;16.15;;;11.98;;
65545;SDS011;52177;55.968;37.498;2023-09-30T00:05:29;14.00;;;12.00;;
65545;SDS011;52177;55.968;37.498;2023-09-30T00:05:59;26.48;;;12.45;;
65545;SDS011;52177;55.968;37.498;2023-09-30T00:06:30;19.35;;;12.65;;
65545;SDS011;52177;55.968;37.498;2023-09-30T00:07:00;14.73;;;12.15;;
65545;SDS011;52177;55.968;37.498;2023-09-30T00:07:31;15.90;;;12.60;;
65545;SDS011;52177;55.968;37.498;2023-09-30T00:08:01;16.30;;;12.38;;
65545;SDS011;52177;55.968;37.498;2023-09-30T00:08:32;14.32;;;11.93;;
65545;SDS011;52177;55.968;37.498;2023-09-30T00:09:02;18.30;;;12.02;;
65545;SDS011;52177;55.968;37.498;2023-09-30T00:09:33;14.80;;;11.98;;
65545;SDS011;52177;55.968;37.498;2023-09-30T00:10:03;15.82;;;11.93;;
65545;SDS011;52177;55.968;37.498;2023-09-30T00:10:34;14.00;;;11.23;;
65545;SDS011;52177;55.968;37.498;2023-09-30T00:11:05;15.98;;;12.00;;
65545;SDS011;52177;55.968;37.498;2023-09-30T00:11:36;18.02;;;12.25;;
65545;SDS011;52177;55.968;37.498;2023-09-30T00:12:06;16.80;;;12.10;;
65545;SDS011;52177;55.968;37.498;2023-09-30T00:12:37;16.30;;;12.52;;
65545;SDS011;52177;55.968;37.498;2023-09-30T00:13:08;13.52;;;11.73;;
65545;SDS011;52177;55.968;37.498;2023-09-30T00:13:38;14.70;;;12.15;;
65545;SDS011;52177;55.968;37.498;2023-09-30T00:14:09;14.77;;;12.45;;
65545;SDS011;52177;55.968;37.498;2023-09-30T00:14:40;14.38;;;11.95;;
65545;SDS011;52177;55.968;37.498;2023-09-30T00:15:10;16.25;;;12.25;;
65545;SDS011;52177;55.968;37.498;2023-09-30T00:15:41;17.67;;;13.38;;
65545;SDS011;52177;55.968;37.498;2023-09-30T00:16:11;15.13;;;12.88;;
65545;SDS011;52177;55.968;37.498;2023-09-30T00:16:42;16.63;;;12.85;;
65545;SDS011;52177;55.968;37.498;2023-09-30T00:17:12;14.65;;;12.55;;
65545;SDS011;52177;55.968;37.498;2023-09-30T00:17:43;16.15;;;12.10;;
65545;SDS011;52177;55.968;37.498;2023-09-30T00:18:13;16.38;;;12.27;;
65545;SDS011;52177;55.968;37.498;2023-09-30T00:18:44;14.15;;;11.25;;
65545;SDS011;52177;55.968;37.498;2023-09-30T00:19:14;13.60;;;12.20;;
65545;SDS011;52177;55.968;37.498;2023-09-30T00:19:45;15.55;;;12.27;;
65545;SDS011;52177;55.968;37.498;2023-09-30T00:20:15;16.88;;;11.93;;
65545;SDS011;52177;55.968;37.498;2023-09-30T00:20:46;16.02;;;11.57;;
65545;SDS011;52177;55.968;37.498;2023-09-30T00:21:16;13.27;;;11.73;;
65545;SDS011;52177;55.968;37.498;2023-09-30T00:21:47;15.40;;;12.68;;
65545;SDS011;52177;55.968;37.498;2023-09-30T00:22:18;19.25;;;12.75;;
65545;SDS011;52177;55.968;37.498;2023-09-30T00:22:48;19.13;;;12.18;;
65545;SDS011;52177;55.968;37.498;2023-09-30T00:23:19;14.43;;;12.40;;
65545;SDS011;52177;55.968;37.498;2023-09-30T00:23:51;14.55;;;12.30;;
65545;SDS011;52177;55.968;37.498;2023-09-30T00:24:21;16.13;;;11.80;;
65545;SDS011;52177;55.968;37.498;2023-09-30T00:24:52;15.30;;;11.48;;
65545;SDS011;52177;55.968;37.498;2023-09-30T00:25:22;18.38;;;12.48;;
65545;SDS011;52177;55.968;37.498;2023-09-30T00:25:53;15.43;;;11.30;;
65545;SDS011;52177;55.968;37.498;2023-09-30T00:26:23;16.20;;;12.20;;
65545;SDS011;52177;55.968;37.498;2023-09-30T00:26:54;15.75;;;11.32;;
65545;SDS011;52177;55.968;37.498;2023-09-30T00:27:24;16.05;;;12.80;;
65545;SDS011;52177;55.968;37.498;2023-09-30T00:27:55;15.70;;;11.48;;
65545;SDS011;52177;55.968;37.498;2023-09-30T00:28:25;23.38;;;11.95;;
65545;SDS011;52177;55.968;37.498;2023-09-30T00:28:55;14.38;;;12.57;;
65545;SDS011;52177;55.968;37.498;2023-09-30T00:29:26;16.92;;;11.88;;
65545;SDS011;52177;55.968;37.498;2023-09-30T00:29:56;17.55;;;12.38;;
65545;SDS011;52177;55.968;37.498;2023-09-30T00:30:27;17.30;;;12.48;;
65545;SDS011;52177;55.968;37.498;2023-09-30T00:30:57;13.48;;;11.57;;
65545;SDS011;52177;55.968;37.498;2023-09-30T00:31:28;14.20;;;11.82;;
65545;SDS011;52177;55.968;37.498;2023-09-30T00:31:58;16.63;;;12.07;;
65545;SDS011;52177;55.968;37.498;2023-09-30T00:32:29;16.63;;;11.55;;
65545;SDS011;52177;55.968;37.498;2023-09-30T00:32:59;16.90;;;11.75;;
65545;SDS011;52177;55.968;37.498;2023-09-30T00:33:30;15.90;;;11.85;;
65545;SDS011;52177;55.968;37.498;2023-09-30T00:34:00;18.40;;;12.18;;
65545;SDS011;52177;55.968;37.498;2023-09-30T00:34:34;13.43;;;11.77;;
65545;SDS011;52177;55.968;37.498;2023-09-30T00:35:06;15.00;;;11.70;;
65545;SDS011;52177;55.968;37.498;2023-09-30T00:35:41;17.08;;;11.70;;
65545;SDS011;52177;55.968;37.498;2023-09-30T00:36:11;15.23;;;11.77;;
65545;SDS011;52177;55.968;37.498;2023-09-30T00:36:42;15.30;;;11.55;;
65545;SDS011;52177;55.968;37.498;2023-09-30T00:37:12;19.27;;;12.90;;
65545;SDS011;52177;55.968;37.498;2023-09-30T00:37:43;15.68;;;12.05;;
65545;SDS011;52177;55.968;37.498;2023-09-30T00:38:14;16.85;;;12.00;;
65545;SDS011;52177;55.968;37.498;2023-09-30T00:38:44;13.98;;;12.10;;
65545;SDS011;52177;55.968;37.498;2023-09-30T00:39:15;17.30;;;12.23;;
65545;SDS011;52177;55.968;37.498;2023-09-30T00:39:45;14.07;;;12.00;;
65545;SDS011;52177;55.968;37.498;2023-09-30T00:40:16;14.75;;;11.98;;
65545;SDS011;52177;55.968;37.498;2023-09-30T00:40:47;18.60;;;12.38;;
65545;SDS011;52177;55.968;37.498;2023-09-30T00:41:18;16.05;;;12.18;;
65545;SDS011;52177;55.968;37.498;2023-09-30T00:41:49;16.58;;;12.50;;
65545;SDS011;52177;55.968;37.498;2023-09-30T00:42:19;15.70;;;12.43;;
65545;SDS011;52177;55.968;37.498;2023-09-30T00:42:50;15.43;;;12.40;;
65545;SDS011;52177;55.968;37.498;2023-09-30T00:43:21;20.52;;;12.85;;
65545;SDS011;52177;55.968;37.498;2023-09-30T00:43:51;16.73;;;12.88;;
65545;SDS011;52177;55.968;37.498;2023-09-30T00:44:22;17.00;;;11.88;;
65545;SDS011;52177;55.968;37.498;2023-09-30T00:44:52;14.90;;;12.05;;
65545;SDS011;52177;55.968;37.498;2023-09-30T00:45:23;13.85;;;11.57;;
65545;SDS011;52177;55.968;37.498;2023-09-30T00:46:01;16.58;;;12.07;;
65545;SDS011;52177;55.968;37.498;2023-09-30T00:46:35;14.88;;;11.60;;
65545;SDS011;52177;55.968;37.498;2023-09-30T00:47:10;18.85;;;12.45;;
65545;SDS011;52177;55.968;37.498;2023-09-30T00:47:40;14.73;;;12.15;;
65545;SDS011;52177;55.968;37.498;2023-09-30T00:48:11;14.40;;;12.48;;
65545;SDS011;52177;55.968;37.498;2023-09-30T00:48:41;17.33;;;12.43;;
65545;SDS011;52177;55.968;37.498;2023-09-30T00:49:13;17.02;;;12.60;;
65545;SDS011;52177;55.968;37.498;2023-09-30T00:49:44;14.15;;;11.73;;
65545;SDS011;52177;55.968;37.498;2023-09-30T00:50:15;14.23;;;12.02;;
65545;SDS011;52177;55.968;37.498;2023-09-30T00:50:45;14.88;;;12.15;;
65545;SDS011;52177;55.968;37.498;2023-09-30T00:51:16;16.20;;;12.55;;
65545;SDS011;52177;55.968;37.498;2023-09-30T00:51:46;15.95;;;12.93;;
65545;SDS011;52177;55.968;37.498;2023-09-30T00:52:17;17.23;;;12.65;;
65545;SDS011;52177;55.968;37.498;2023-09-30T00:52:48;17.30;;;13.30;;
65545;SDS011;52177;55.968;37.498;2023-09-30T00:53:20;14.35;;;11.98;;
65545;SDS011;52177;55.968;37.498;2023-09-30T00:53:53;15.48;;;11.82;;
65545;SDS011;52177;55.968;37.498;2023-09-30T00:54:27;14.40;;;12.00;;
65545;SDS011;52177;55.968;37.498;2023-09-30T00:54:57;15.80;;;12.45;;
65545;SDS011;52177;55.968;37.498;2023-09-30T00:55:28;17.02;;;12.10;;
65545;SDS011;52177;55.968;37.498;2023-09-30T00:55:59;14.13;;;12.43;;
65545;SDS011;52177;55.968;37.498;2023-09-30T00:56:31;16.83;;;12.88;;
65545;SDS011;52177;55.968;37.498;2023-09-30T00:57:07;15.23;;;11.57;;
65545;SDS011;52177;55.968;37.498;2023-09-30T00:57:40;18.27;;;12.10;;
65545;SDS011;52177;55.968;37.498;2023-09-30T00:58:10;15.02;;;11.73;;
65545;SDS011;52177;55.968;37.498;2023-09-30T00:58:41;13.50;;;11.75;;
65545;SDS011;52177;55.968;37.498;2023-09-30T00:59:13;18.48;;;11.75;;
65545;SDS011;52177;55.968;37.498;2023-09-30T00:59:44;16.48;;;12.25;;
65545;SDS011;52177;55.968;37.498;2023-09-30T01:00:15;15.40;;;12.52;;
65545;SDS011;52177;55.968;37.498;2023-09-30T01:00:46;16.98;;;12.52;;
65545;SDS011;52177;55.968;37.498;2023-09-30T01:01:20;16.60;;;12.43;;
65545;SDS011;52177;55.968;37.498;2023-09-30T01:01:51;19.73;;;11.82;;
65545;SDS011;52177;55.968;37.498;2023-09-30T01:02:21;16.40;;;11.40;;
65545;SDS011;52177;55.968;37.498;2023-09-30T01:02:53;15.52;;;12.63;;
65545;SDS011;52177;55.968;37.498;2023-09-30T01:03:23;13.23;;;11.63;;
65545;SDS011;52177;55.968;37.498;2023-09-30T01:03:54;15.63;;;12.55;;
65545;SDS011;52177;55.968;37.498;2023-09-30T01:04:24;17.65;;;12.80;;
65545;SDS011;52177;55.968;37.498;2023-09-30T01:04:57;16.13;;;13.13;;
65545;SDS011;52177;55.968;37.498;2023-09-30T01:05:28;18.67;;;12.93;;
65545;SDS011;52177;55.968;37.498;2023-09-30T01:05:59;15.05;;;12.55;;
65545;SDS011;52177;55.968;37.498;2023-09-30T01:06:30;17.63;;;12.77;;
65545;SDS011;52177;55.968;37.498;2023-09-30T01:07:00;14.02;;;12.15;;
65545;SDS011;52177;55.968;37.498;2023-09-30T01:07:31;19.08;;;12.43;;
65545;SDS011;52177;55.968;37.498;2023-09-30T01:08:01;16.48;;;13.30;;
65545;SDS011;52177;55.968;37.498;2023-09-30T01:08:33;20.70;;;13.35;;
65545;SDS011;52177;55.968;37.498;2023-09-30T01:09:04;19.15;;;12.60;;
65545;SDS011;52177;55.968;37.498;2023-09-30T01:09:34;16.13;;;12.45;;
65545;SDS011;52177;55.968;37.498;2023-09-30T01:10:06;17.17;;;12.07;;
65545;SDS011;52177;55.968;37.498;2023-09-30T01:10:37;15.32;;;12.63;;
65545;SDS011;52177;55.968;37.498;2023-09-30T01:11:08;16.95;;;13.00;;
65545;SDS011;52177;55.968;37.498;2023-09-30T01:11:39;16.70;;;12.88;;
65545;SDS011;52177;55.968;37.498;2023-09-30T01:12:10;19.23;;;13.13;;
65545;SDS011;52177;55.968;37.498;2023-09-30T01:12:41;16.10;;;12.63;;
65545;SDS011;52177;55.968;37.498;2023-09-30T01:13:12;18.15;;;12.80;;
65545;SDS011;52177;55.968;37.498;2023-09-30T01:13:43;19.52;;;11.98;;
65545;SDS011;52177;55.968;37.498;2023-09-30T01:14:33;16.83;;;12.23;;
65545;SDS011;52177;55.968;37.498;2023-09-30T01:15:05;14.57;;;12.55;;
65545;SDS011;52177;55.968;37.498;2023-09-30T01:15:36;19.25;;;13.43;;
65545;SDS011;52177;55.968;37.498;2023-09-30T01:16:08;16.33;;;13.13;;
65545;SDS011;52177;55.968;37.498;2023-09-30T01:16:39;16.35;;;12.48;;
65545;SDS011;52177;55.968;37.498;2023-09-30T01:17:10;16.65;;;13.40;;
65545;SDS011;52177;55.968;37.498;2023-09-30T01:17:43;17.88;;;13.27;;
65545;SDS011;52177;55.968;37.498;2023-09-30T01:18:14;16.73;;;13.27;;
65545;SDS011;52177;55.968;37.498;2023-09-30T01:18:44;14.40;;;12.35;;
65545;SDS011;52177;55.968;37.498;2023-09-30T01:19:15;16.70;;;13.05;;
65545;SDS011;52177;55.968;37.498;2023-09-30T01:19:45;19.40;;;14.55;;
65545;SDS011;52177;55.968;37.498;2023-09-30T01:20:16;17.05;;;12.60;;
65545;SDS011;52177;55.968;37.498;2023-09-30T01:20:49;19.13;;;13.25;;
65545;SDS011;52177;55.968;37.498;2023-09-30T01:21:22;15.63;;;12.85;;
65545;SDS011;52177;55.968;37.498;2023-09-30T01:21:54;17.58;;;13.00;;
65545;SDS011;52177;55.968;37.498;2023-09-30T01:22:28;17.25;;;12.95;;
65545;SDS011;52177;55.968;37.498;2023-09-30T01:23:00;16.15;;;13.05;;
65545;SDS011;52177;55.968;37.498;2023-09-30T01:23:32;15.13;;;12.80;;
65545;SDS011;52177;55.968;37.498;2023-09-30T01:24:03;23.10;;;13.75;;
65545;SDS011;52177;55.968;37.498;2023-09-30T01:24:40;18.85;;;13.25;;
65545;SDS011;52177;55.968;37.498;2023-09-30T01:25:12;16.92;;;12.98;;
65545;SDS011;52177;55.968;37.498;2023-09-30T01:25:42;18.40;;;13.45;;
65545;SDS011;52177;55.968;37.498;2023-09-30T01:26:14;17.27;;;13.57;;
65545;SDS011;52177;55.968;37.498;2023-09-30T01:26:44;16.73;;;13.10;;
65545;SDS011;52177;55.968;37.498;2023-09-30T01:27:15;16.65;;;12.45;;
65545;SDS011;52177;55.968;37.498;2023-09-30T01:27:48;17.77;;;12.90;;
65545;SDS011;52177;55.968;37.498;2023-09-30T01:28:21;15.70;;;12.15;;
65545;SDS011;52177;55.968;37.498;2023-09-30T01:28:52;18.73;;;12.88;;
65545;SDS011;52177;55.968;37.498;2023-09-30T01:29:22;16.98;;;12.60;;
65545;SDS011;52177;55.968;37.498;2023-09-30T01:29:55;17.88;;;12.65;;
65545;SDS011;52177;55.968;37.498;2023-09-30T01:30:25;15.88;;;12.50;;
65545;SDS011;52177;55.968;37.498;2023-09-30T01:30:56;14.90;;;12.52;;
65545;SDS011;52177;55.968;37.498;2023-09-30T01:31:27;18.13;;;13.20;;
65545;SDS011;52177;55.968;37.498;2023-09-30T01:31:57;16.55;;;12.85;;
65545;SDS011;52177;55.968;37.498;2023-09-30T01:32:27;19.92;;;13.20;;
65545;SDS011;52177;55.968;37.498;2023-09-30T01:32:58;21.52;;;13.35;;
65545;SDS011;52177;55.968;37.498;2023-09-30T01:33:28;18.25;;;13.07;;
65545;SDS011;52177;55.968;37.498;2023-09-30T01:33:59;14.48;;;12.98;;
65545;SDS011;52177;55.968;37.498;2023-09-30T01:34:29;19.05;;;12.77;;
65545;SDS011;52177;55.968;37.498;2023-09-30T01:35:00;15.63;;;13.40;;
65545;SDS011;52177;55.968;37.498;2023-09-30T01:35:30;19.77;;;12.95;;
65545;SDS011;52177;55.968;37.498;2023-09-30T01:36:01;14.55;;;13.02;;
65545;SDS011;52177;55.968;37.498;2023-09-30T01:36:32;17.88;;;13.18;;
65545;SDS011;52177;55.968;37.498;2023-09-30T01:37:02;20.05;;;13.32;;
65545;SDS011;52177;55.968;37.498;2023-09-30T01:37:33;16.10;;;12.75;;
65545;SDS011;52177;55.968;37.498;2023-09-30T01:38:03;15.25;;;13.65;;
65545;SDS011;52177;55.968;37.498;2023-09-30T01:38:33;16.13;;;13.35;;
65545;SDS011;52177;55.968;37.498;2023-09-30T01:39:04;18.58;;;13.88;;
65545;SDS011;52177;55.968;37.498;2023-09-30T01:39:34;18.05;;;13.77;;
65545;SDS011;52177;55.968;37.498;2023-09-30T01:40:05;21.23;;;14.23;;
65545;SDS011;52177;55.968;37.498;2023-09-30T01:40:38;17.50;;;14.32;;
65545;SDS011;52177;55.968;37.498;2023-09-30T01:41:08;20.08;;;13.45;;
65545;SDS011;52177;55.968;37.498;2023-09-30T01:41:39;17.48;;;12.98;;
65545;SDS011;52177;55.968;37.498;2023-09-30T01:42:10;18.20;;;12.88;;
65545;SDS011;52177;55.968;37.498;2023-09-30T01:42:41;15.45;;;12.85;;
65545;SDS011;52177;55.968;37.498;2023-09-30T01:43:13;14.63;;;13.13;;
65545;SDS011;52177;55.968;37.498;2023-09-30T01:43:44;19.42;;;13.95;;
65545;SDS011;52177;55.968;37.498;2023-09-30T01:44:14;15.38;;;12.98;;
65545;SDS011;52177;55.968;37.498;2023-09-30T01:44:44;16.73;;;13.50;;
65545;SDS011;52177;55.968;37.498;2023-09-30T01:45:15;14.75;;;13.18;;
65545;SDS011;52177;55.968;37.498;2023-09-30T01:45:45;18.92;;;13.95;;
65545;SDS011;52177;55.968;37.498;2023-09-30T01:46:16;21.35;;;13.77;;
65545;SDS011;52177;55.968;37.498;2023-09-30T01:46:46;18.23;;;13.43;;
65545;SDS011;52177;55.968;37.498;2023-09-30T01:47:16;19.10;;;13.50;;
65545;SDS011;52177;55.968;37.498;2023-09-30T01:47:47;18.17;;;12.95;;
65545;SDS011;52177;55.968;37.498;2023-09-30T01:48:17;24.65;;;12.75;;
65545;SDS011;52177;55.968;37.498;2023-09-30T01:48:48;16.35;;;13.35;;
65545;SDS011;52177;55.968;37.498;2023-09-30T01:49:18;18.27;;;13.25;;
65545;SDS011;52177;55.968;37.498;2023-09-30T01:49:48;18.35;;;13.68;;
65545;SDS011;52177;55.968;37.498;2023-09-30T01:50:19;16.98;;;14.15;;
65545;SDS011;52177;55.968;37.498;2023-09-30T01:50:50;16.52;;;13.82;;
65545;SDS011;52177;55.968;37.498;2023-09-30T01:51:20;17.02;;;12.80;;
65545;SDS011;52177;55.968;37.498;2023-09-30T01:51:51;19.58;;;13.77;;
65545;SDS011;52177;55.968;37.498;2023-09-30T01:52:23;19.13;;;13.48;;
65545;SDS011;52177;55.968;37.498;2023-09-30T01:52:53;18.15;;;13.98;;
65545;SDS011;52177;55.968;37.498;2023-09-30T01:53:23;18.15;;;13.65;;
65545;SDS011;52177;55.968;37.498;2023-09-30T01:53:54;17.70;;;13.73;;
65545;SDS011;52177;55.968;37.498;2023-09-30T01:54:25;18.10;;;13.98;;
65545;SDS011;52177;55.968;37.498;2023-09-30T01:54:55;18.77;;;15.30;;
65545;SDS011;52177;55.968;37.498;2023-09-30T01:55:25;19.38;;;14.70;;
65545;SDS011;52177;55.968;37.498;2023-09-30T01:55:56;20.17;;;14.73;;
65545;SDS011;52177;55.968;37.498;2023-09-30T01:56:27;16.80;;;14.00;;
65545;SDS011;52177;55.968;37.498;2023-09-30T01:56:57;17.15;;;14.35;;
65545;SDS011;52177;55.968;37.498;2023-09-30T01:57:28;18.63;;;13.88;;
65545;SDS011;52177;55.968;37.498;2023-09-30T01:57:59;18.10;;;13.88;;
65545;SDS011;52177;55.968;37.498;2023-09-30T01:58:29;17.77;;;14.02;;
65545;SDS011;52177;55.968;37.498;2023-09-30T01:59:00;18.92;;;13.90;;
65545;SDS011;52177;55.968;37.498;2023-09-30T01:59:30;20.05;;;14.63;;
65545;SDS011;52177;55.968;37.498;2023-09-30T02:00:01;18.17;;;13.68;;
65545;SDS011;52177;55.968;37.498;2023-09-30T02:00:31;19.77;;;14.25;;
65545;SDS011;52177;55.968;37.498;2023-09-30T02:01:02;19.10;;;14.25;;
65545;SDS011;52177;55.968;37.498;2023-09-30T02:01:34;22.13;;;13.82;;
65545;SDS011;52177;55.968;37.498;2023-09-30T02:02:04;17.08;;;13.65;;
65545;SDS011;52177;55.968;37.498;2023-09-30T02:02:35;16.40;;;13.75;;
65545;SDS011;52177;55.968;37.498;2023-09-30T02:03:06;17.42;;;14.02;;
65545;SDS011;52177;55.968;37.498;2023-09-30T02:03:37;22.40;;;14.65;;
65545;SDS011;52177;55.968;37.498;2023-09-30T02:04:08;15.75;;;13.88;;
65545;SDS011;52177;55.968;37.498;2023-09-30T02:04:38;22.65;;;16.33;;
65545;SDS011;52177;55.968;37.498;2023-09-30T02:05:09;20.70;;;15.52;;
65545;SDS011;52177;55.968;37.498;2023-09-30T02:05:39;15.27;;;13.73;;
65545;SDS011;52177;55.968;37.498;2023-09-30T02:06:10;20.35;;;14.80;;
65545;SDS011;52177;55.968;37.498;2023-09-30T02:06:40;19.50;;;14.05;;
65545;SDS011;52177;55.968;37.498;2023-09-30T02:07:11;20.83;;;15.85;;
65545;SDS011;52177;55.968;37.498;2023-09-30T02:07:42;19.90;;;15.55;;
65545;SDS011;52177;55.968;37.498;2023-09-30T02:08:13;19.88;;;15.52;;
65545;SDS011;52177;55.968;37.498;2023-09-30T02:08:43;23.70;;;16.02;;
65545;SDS011;52177;55.968;37.498;2023-09-30T02:09:14;17.98;;;15.18;;
65545;SDS011;52177;55.968;37.498;2023-09-30T02:09:45;16.35;;;14.63;;
65545;SDS011;52177;55.968;37.498;2023-09-30T02:10:15;18.92;;;15.00;;
65545;SDS011;52177;55.968;37.498;2023-09-30T02:10:48;24.08;;;15.75;;
65545;SDS011;52177;55.968;37.498;2023-09-30T02:11:19;18.58;;;14.95;;
65545;SDS011;52177;55.968;37.498;2023-09-30T02:11:49;18.27;;;14.68;;
65545;SDS011;52177;55.968;37.498;2023-09-30T02:12:20;19.15;;;15.50;;
65545;SDS011;52177;55.968;37.498;2023-09-30T02:12:50;18.75;;;14.93;;
65545;SDS011;52177;55.968;37.498;2023-09-30T02:13:20;20.27;;;15.27;;
65545;SDS011;52177;55.968;37.498;2023-09-30T02:13:51;17.17;;;15.23;;
65545;SDS011;52177;55.968;37.498;2023-09-30T02:14:21;19.58;;;15.63;;
65545;SDS011;52177;55.968;37.498;2023-09-30T02:14:52;19.25;;;14.93;;
65545;SDS011;52177;55.968;37.498;2023-09-30T02:15:22;20.75;;;15.52;;
65545;SDS011;52177;55.968;37.498;2023-09-30T02:15:53;20.17;;;15.00;;
65545;SDS011;52177;55.968;37.498;2023-09-30T02:16:25;25.48;;;15.63;;
65545;SDS011;52177;55.968;37.498;2023-09-30T02:16:55;19.88;;;14.93;;
65545;SDS011;52177;55.968;37.498;2023-09-30T02:17:27;17.25;;;15.35;;
65545;SDS011;52177;55.968;37.498;2023-09-30T02:17:57;19.83;;;16.20;;
65545;SDS011;52177;55.968;37.498;2023-09-30T02:18:30;21.08;;;15.05;;
65545;SDS011;52177;55.968;37.498;2023-09-30T02:19:02;19.38;;;15.60;;
65545;SDS011;52177;55.968;37.498;2023-09-30T02:19:32;19.83;;;15.65;;
65545;SDS011;52177;55.968;37.498;2023-09-30T02:20:04;17.83;;;15.38;;
65545;SDS011;52177;55.968;37.498;2023-09-30T02:20:42;19.42;;;15.27;;
65545;SDS011;52177;55.968;37.498;2023-09-30T02:21:14;21.67;;;14.45;;
65545;SDS011;52177;55.968;37.498;2023-09-30T02:21:45;17.33;;;15.20;;
65545;SDS011;52177;55.968;37.498;2023-09-30T02:22:15;16.70;;;14.98;;
65545;SDS011;52177;55.968;37.498;2023-09-30T02:22:46;19.38;;;15.20;;
65545;SDS011;52177;55.968;37.498;2023-09-30T02:23:17;19.20;;;14.85;;
65545;SDS011;52177;55.968;37.498;2023-09-30T02:23:48;17.30;;;14.95;;
65545;SDS011;52177;55.968;37.498;2023-09-30T02:24:18;22.00;;;15.43;;
65545;SDS011;52177;55.968;37.498;2023-09-30T02:24:48;20.15;;;15.65;;
65545;SDS011;52177;55.968;37.498;2023-09-30T02:25:19;17.33;;;15.50;;
65545;SDS011;52177;55.968;37.498;2023-09-30T02:25:49;21.40;;;16.75;;
65545;SDS011;52177;55.968;37.498;2023-09-30T02:26:20;23.75;;;16.83;;
65545;SDS011;52177;55.968;37.498;2023-09-30T02:26:51;18.65;;;15.55;;
65545;SDS011;52177;55.968;37.498;2023-09-30T02:27:21;18.13;;;15.88;;
65545;SDS011;52177;55.968;37.498;2023-09-30T02:27:52;21.90;;;16.15;;
65545;SDS011;52177;55.968;37.498;2023-09-30T02:28:22;19.83;;;16.27;;
65545;SDS011;52177;55.968;37.498;2023-09-30T02:28:53;20.00;;;16.15;;
65545;SDS011;52177;55.968;37.498;2023-09-30T02:29:24;20.27;;;15.80;;
65545;SDS011;52177;55.968;37.498;2023-09-30T02:29:54;19.73;;;15.48;;
65545;SDS011;52177;55.968;37.498;2023-09-30T02:30:25;21.77;;;15.27;;
65545;SDS011;52177;55.968;37.498;2023-09-30T02:30:55;18.73;;;15.18;;
65545;SDS011;52177;55.968;37.498;2023-09-30T02:31:26;18.75;;;15.65;;
65545;SDS011;52177;55.968;37.498;2023-09-30T02:31:56;19.75;;;15.88;;
65545;SDS011;52177;55.968;37.498;2023-09-30T02:32:27;16.70;;;14.95;;
65545;SDS011;52177;55.968;37.498;2023-09-30T02:32:57;19.27;;;15.85;;
65545;SDS011;52177;55.968;37.498;2023-09-30T02:33:28;18.67;;;14.95;;
65545;SDS011;52177;55.968;37.498;2023-09-30T02:33:59;17.45;;;14.57;;
65545;SDS011;52177;55.968;37.498;2023-09-30T02:34:30;20.98;;;16.17;;
65545;SDS011;52177;55.968;37.498;2023-09-30T02:35:00;17.08;;;15.10;;
65545;SDS011;52177;55.968;37.498;2023-09-30T02:35:31;20.25;;;15.65;;
65545;SDS011;52177;55.968;37.498;2023-09-30T02:36:02;17.42;;;15.07;;
65545;SDS011;52177;55.968;37.498;2023-09-30T02:36:36;18.70;;;16.10;;
65545;SDS011;52177;55.968;37.498;2023-09-30T02:37:08;17.35;;;14.60;;
65545;SDS011;52177;55.968;37.498;2023-09-30T02:37:40;17.17;;;14.35;;
65545;SDS011;52177;55.968;37.498;2023-09-30T02:38:11;19.92;;;15.48;;
65545;SDS011;52177;55.968;37.498;2023-09-30T02:38:42;16.80;;;15.05;;
65545;SDS011;52177;55.968;37.498;2023-09-30T02:39:13;18.30;;;14.95;;
65545;SDS011;52177;55.968;37.498;2023-09-30T02:39:46;20.40;;;14.77;;
65545;SDS011;52177;55.968;37.498;2023-09-30T02:40:16;19.10;;;15.23;;
65545;SDS011;52177;55.968;37.498;2023-09-30T02:40:47;20.00;;;16.13;;
65545;SDS011;52177;55.968;37.498;2023-09-30T02:41:18;23.45;;;15.68;;
65545;SDS011;52177;55.968;37.498;2023-09-30T02:41:49;20.92;;;15.50;;
65545;SDS011;52177;55.968;37.498;2023-09-30T02:42:20;21.65;;;15.13;;
65545;SDS011;52177;55.968;37.498;2023-09-30T02:42:53;19.15;;;14.82;;
65545;SDS011;52177;55.968;37.498;2023-09-30T02:43:24;18.00;;;14.70;;
65545;SDS011;52177;55.968;37.498;2023-09-30T02:43:54;17.80;;;15.35;;
65545;SDS011;52177;55.968;37.498;2023-09-30T02:44:24;17.55;;;15.73;;
65545;SDS011;52177;55.968;37.498;2023-09-30T02:44:55;18.38;;;14.75;;
65545;SDS011;52177;55.968;37.498;2023-09-30T02:45:25;20.17;;;14.32;;
65545;SDS011;52177;55.968;37.498;2023-09-30T02:45:56;20.73;;;15.45;;
65545;SDS011;52177;55.968;37.498;2023-09-30T02:46:26;17.40;;;14.77;;
65545;SDS011;52177;55.968;37.498;2023-09-30T02:46:58;16.27;;;14.57;;
65545;SDS011;52177;55.968;37.498;2023-09-30T02:47:28;20.90;;;15.73;;
65545;SDS011;52177;55.968;37.498;2023-09-30T02:47:59;17.35;;;14.35;;
65545;SDS011;52177;55.968;37.498;2023-09-30T02:48:29;22.10;;;15.32;;
65545;SDS011;52177;55.968;37.498;2023-09-30T02:49:02;17.83;;;14.32;;
65545;SDS011;52177;55.968;37.498;2023-09-30T02:49:33;18.15;;;14.70;;
65545;SDS011;52177;55.968;37.498;2023-09-30T02:50:05;18.73;;;14.25;;
65545;SDS011;52177;55.968;37.498;2023-09-30T02:50:38;18.63;;;14.38;;
65545;SDS011;52177;55.968;37.498;2023-09-30T02:51:10;19.42;;;14.48;;
65545;SDS011;52177;55.968;37.498;2023-09-30T02:51:41;18.65;;;14.45;;
65545;SDS011;52177;55.968;37.498;2023-09-30T02:52:12;18.35;;;14.70;;
65545;SDS011;52177;55.968;37.498;2023-09-30T02:52:42;20.15;;;14.30;;
65545;SDS011;52177;55.968;37.498;2023-09-30T02:53:13;17.58;;;14.05;;
65545;SDS011;52177;55.968;37.498;2023-09-30T02:53:43;20.75;;;14.02;;
65545;SDS011;52177;55.968;37.498;2023-09-30T02:54:15;16.92;;;13.93;;
65545;SDS011;52177;55.968;37.498;2023-09-30T02:54:46;17.02;;;14.93;;
65545;SDS011;52177;55.968;37.498;2023-09-30T02:55:17;17.48;;;14.43;;
65545;SDS011;52177;55.968;37.498;2023-09-30T02:55:47;19.30;;;14.05;;
65545;SDS011;52177;55.968;37.498;2023-09-30T02:56:19;16.67;;;14.70;;
65545;SDS011;52177;55.968;37.498;2023-09-30T02:56:50;18.73;;;14.63;;
65545;SDS011;52177;55.968;37.498;2023-09-30T02:57:22;22.20;;;15.00;;
65545;SDS011;52177;55.968;37.498;2023-09-30T02:57:53;18.48;;;14.27;;
65545;SDS011;52177;55.968;37.498;2023-09-30T02:58:24;16.13;;;13.52;;
65545;SDS011;52177;55.968;37.498;2023-09-30T02:58:54;20.38;;;14.07;;